Merna, Nebraska
Current Conditions -  °F | °C
As of 3:53 AM on Sunday 23 Nov 2014 (Local Time) from KBBW Reporting Station
Clear Clear  
Wind Chill: 11°   Ceiling: Unl
Heat Index: 11°   Visibility: 10mi
Dew Point: -1°   Wind: 20mph
Humidity: 45%   Direction: 310°NW
Pressure: 29.45"   Gusts: 24mph
Location:  41.48°N, 99.76°W
Report Text: KBBW 230953Z AUTO 31017G21KT 10SM CLR 11/M01 A2945 RMK AO2 SLP962 T01111006 PWINO $
Loading
Personal Weather Stations






























Interactive Weather Map New forecast layout! Learn more

10-Day Weather Forecast

Advertisements
Track Severe Weather on mobile